Airport View

Enter AWOS ICAO identifier for current METAR.

ex. KFNL

KI75 250105Z AUTO 09009KT 7SM -RA SCT032 SCT055 OVC080 21/19 A2983 RMK AO2 P0001 T02070192

25 May 2020 01:10

Frequency: 120.975

Phone: 641-342-1422

Other Area AWOS: KCNC - KLWD - KDSM - KOXV

TAF KDSM 242329Z 2500/2524 17006KT 6SM -TSRA BR SCT060CB OVC080 FM250200 14004KT P6SM -SHRA BKN045 FM250900 17004KT P6SM OVC010 FM251400 18005KT P6SM BKN035 FM252100 18007KT 6SM -SHRA VCTS BKN050CB